Welcome to Northern Hawkes Bay. New Zealand.
PWS Header
      nz Flag



Hit Counter


W3C Valid W3C Valid logo


    Wairoa

Select any of the Stations below to visit their websites.










Historic Data from Weather Underground
Select the location of interest below. Wairoa is the default. Please have patience, this Data is slow to load in.
Northern Hawkes Bay Historical Data
Daily Summary for May 11, 2017 Units:  Metric    English   Both
« Previous Day
Next Day »
Daily Weekly Monthly Yearly Custom
  High: Low: Average:
Temperature: 19.1 °C 12.3 °C 16.8 °C
Dew Point: 14.8 °C 10.2 °C 12.2 °C
Humidity: 95% 62% 75%
Wind Speed: 24.5km/h 0.0km/h 7.4km/h
Wind Gust: 41.7km/h - -
Wind- - ESE
Pressure: 1024.6 hPa 1009.4 hPa -
Precipitation: 0.0 mm    
Historical Graphs
 
 
Tabular Data for May 11, 2017
Time Temperature Dew Point Pressure Wind Wind Speed Wind Gust Humidity Rainfall Rate (Hourly) solar
00:05 13.0 °C 12.1 °C 1024.6 hPa Calm     94% 0.0 mm 0 W/m2
02:47 12.6 °C 11.5 °C 1023.9 hPa Calm     93% 0.0 mm 0 W/m2
02:52 12.6 °C 11.5 °C 1023.6 hPa Calm     93% 0.0 mm 0 W/m2
02:57 12.5 °C 11.4 °C 1023.6 hPa Calm     93% 0.0 mm 0 W/m2
03:02 12.5 °C 11.4 °C 1023.2 hPa Calm     93% 0.0 mm 0 W/m2
03:07 12.5 °C 11.6 °C 1023.2 hPa Calm     94% 0.0 mm 0 W/m2
03:12 12.4 °C 11.4 °C 1022.9 hPa Calm     94% 0.0 mm 0 W/m2
03:17 12.4 °C 11.4 °C 1022.9 hPa Calm     94% 0.0 mm 0 W/m2
03:22 12.3 °C 11.4 °C 1022.6 hPa Calm     94% 0.0 mm 0 W/m2
03:27 12.3 °C 11.4 °C 1022.6 hPa Calm     94% 0.0 mm 0 W/m2
03:32 12.3 °C 11.4 °C 1022.6 hPa Calm     94% 0.0 mm 0 W/m2
03:37 12.5 °C 11.7 °C 1022.6 hPa Calm     95% 0.0 mm 0 W/m2
03:42 12.6 °C 11.8 °C 1022.6 hPa Calm     95% 0.0 mm 0 W/m2
03:43 12.6 °C 11.8 °C 1022.9 hPa Calm     95% 0.0 mm 0 W/m2
03:48 12.6 °C 11.8 °C 1022.6 hPa Calm     95% 0.0 mm 0 W/m2
03:53 12.6 °C 11.8 °C 1022.6 hPa Calm     95% 0.0 mm 0 W/m2
03:58 12.6 °C 11.7 °C 1022.6 hPa Calm     94% 0.0 mm 0 W/m2
04:03 12.5 °C 11.6 °C 1022.6 hPa Calm     94% 0.0 mm 0 W/m2
04:08 12.6 °C 11.8 °C 1022.6 hPa Calm     95% 0.0 mm 0 W/m2
04:13 12.7 °C 11.9 °C 1022.2 hPa Calm     95% 0.0 mm 0 W/m2
04:18 12.8 °C 12.0 °C 1022.2 hPa Calm     95% 0.0 mm 0 W/m2
04:23 12.8 °C 12.0 °C 1022.2 hPa Calm     95% 0.0 mm 0 W/m2
04:28 12.8 °C 12.0 °C 1022.2 hPa Calm     95% 0.0 mm 0 W/m2
04:33 12.8 °C 12.0 °C 1022.2 hPa Calm     95% 0.0 mm 0 W/m2
04:38 12.9 °C 12.1 °C 1022.2 hPa Calm     95% 0.0 mm 0 W/m2
04:59 13.1 °C 12.2 °C 1022.2 hPa Calm     94% 0.0 mm 0 W/m2
05:04 13.1 °C 12.2 °C 1021.9 hPa Calm     94% 0.0 mm 0 W/m2
05:09 13.1 °C 12.0 °C 1021.9 hPa Calm     93% 0.0 mm 0 W/m2
05:14 13.1 °C 12.0 °C 1021.9 hPa Calm     93% 0.0 mm 0 W/m2
05:19 13.0 °C 11.9 °C 1021.6 hPa Calm     93% 0.0 mm 0 W/m2
05:25 13.1 °C 12.0 °C 1021.6 hPa Calm     93% 0.0 mm 0 W/m2
05:30 13.1 °C 12.0 °C 1021.6 hPa Calm     93% 0.0 mm 0 W/m2
05:35 13.4 °C 12.4 °C 1021.9 hPa Calm     94% 0.0 mm 0 W/m2
05:40 13.8 °C 12.7 °C 1021.6 hPa NNE 1.1 km/h 7.2 km/h 93% 0.0 mm 0 W/m2
05:45 14.2 °C 12.6 °C 1021.6 hPa NNE 1.1 km/h 7.2 km/h 90% 0.0 mm 0 W/m2
05:50 14.0 °C 12.1 °C 1021.6 hPa Calm   5.0 km/h 88% 0.0 mm 0 W/m2
05:55 13.8 °C 12.0 °C 1021.9 hPa Calm   3.5 km/h 89% 0.0 mm 0 W/m2
06:00 13.8 °C 12.0 °C 1022.2 hPa NW 2.6 km/h 5.0 km/h 89% 0.0 mm 0 W/m2
06:05 13.8 °C 12.0 °C 1021.9 hPa Calm   5.0 km/h 89% 0.0 mm 0 W/m2
06:10 13.8 °C 12.0 °C 1021.9 hPa Calm   5.0 km/h 89% 0.0 mm 0 W/m2
06:15 13.8 °C 12.0 °C 1021.9 hPa Calm     89% 0.0 mm 0 W/m2
06:20 13.9 °C 12.1 °C 1022.2 hPa NNW 5.0 km/h 7.2 km/h 89% 0.0 mm 0 W/m2
06:25 14.0 °C 12.1 °C 1021.9 hPa Calm   7.2 km/h 88% 0.0 mm 0 W/m2
06:30 14.0 °C 11.9 °C 1021.9 hPa Calm   7.2 km/h 87% 0.0 mm 0 W/m2
06:35 14.0 °C 11.9 °C 1022.2 hPa Calm     87% 0.0 mm 0 W/m2
06:40 14.0 °C 11.9 °C 1022.2 hPa North 2.6 km/h 3.5 km/h 87% 0.0 mm 0 W/m2
06:45 14.1 °C 12.0 °C 1021.9 hPa North 1.1 km/h 5.0 km/h 87% 0.0 mm 0 W/m2
06:50 14.2 °C 11.9 °C 1022.2 hPa Calm   5.0 km/h 86% 0.0 mm 0 W/m2
06:55 14.2 °C 11.9 °C 1022.2 hPa Calm   5.0 km/h 86% 0.0 mm 0 W/m2
07:01 14.1 °C 11.8 °C 1022.2 hPa Calm     86% 0.0 mm 0 W/m2
07:06 13.9 °C 11.8 °C 1021.9 hPa Calm     87% 0.0 mm 0 W/m2
07:11 13.8 °C 11.7 °C 1022.2 hPa Calm     87% 0.0 mm 0 W/m2
07:16 13.8 °C 11.7 °C 1021.9 hPa Calm     87% 0.0 mm 1 W/m2
07:21 13.9 °C 11.9 °C 1021.9 hPa Calm     88% 0.0 mm 2 W/m2
07:26 13.8 °C 11.8 °C 1021.9 hPa NW 1.1 km/h 5.0 km/h 88% 0.0 mm 4 W/m2
07:31 14.0 °C 11.9 °C 1021.6 hPa NNW 2.6 km/h 5.0 km/h 87% 0.0 mm 6 W/m2
07:36 14.3 °C 11.8 °C 1021.6 hPa North 1.1 km/h 8.7 km/h 85% 0.0 mm 9 W/m2
07:41 14.8 °C 12.1 °C 1021.6 hPa North 6.1 km/h 11.1 km/h 84% 0.0 mm 13 W/m2
07:46 15.6 °C 11.8 °C 1021.6 hPa North 6.1 km/h 14.8 km/h 78% 0.0 mm 13 W/m2
07:51 16.0 °C 11.4 °C 1021.6 hPa North 6.1 km/h 14.8 km/h 74% 0.0 mm 14 W/m2
07:56 16.3 °C 11.4 °C 1021.2 hPa NNE 3.5 km/h 14.8 km/h 73% 0.0 mm 13 W/m2
08:01 16.4 °C 11.3 °C 1021.6 hPa NNE 6.1 km/h 20.9 km/h 72% 0.0 mm 14 W/m2
08:03 16.4 °C 11.3 °C 1021.2 hPa NNE 11.1 km/h 20.9 km/h 72% 0.0 mm 15 W/m2
08:22 16.5 °C 11.4 °C 1021.2 hPa NNW 8.7 km/h 19.5 km/h 72% 0.0 mm 20 W/m2
08:27 16.5 °C 11.4 °C 1021.2 hPa North 6.1 km/h 17.2 km/h 72% 0.0 mm 25 W/m2
08:32 16.5 °C 11.7 °C 1021.2 hPa North 7.2 km/h 17.2 km/h 73% 0.0 mm 29 W/m2
08:37 16.5 °C 11.4 °C 1021.2 hPa North 2.6 km/h 17.2 km/h 72% 0.0 mm 30 W/m2
08:42 16.6 °C 11.6 °C 1021.2 hPa NNE 5.0 km/h 14.8 km/h 72% 0.0 mm 30 W/m2
08:47 16.6 °C 11.7 °C 1021.2 hPa North 1.1 km/h 11.1 km/h 73% 0.0 mm 31 W/m2
08:52 16.6 °C 11.7 °C 1020.9 hPa North 6.1 km/h 15.8 km/h 73% 0.0 mm 31 W/m2
08:57 16.6 °C 11.7 °C 1020.9 hPa North 2.6 km/h 15.8 km/h 73% 0.0 mm 30 W/m2
09:02 16.7 °C 11.6 °C 1020.9 hPa North 3.5 km/h 13.4 km/h 72% 0.0 mm 31 W/m2
09:07 16.7 °C 11.8 °C 1021.2 hPa North 6.1 km/h 13.4 km/h 73% 0.0 mm 35 W/m2
09:12 16.8 °C 11.7 °C 1021.2 hPa NNE 6.1 km/h 12.2 km/h 72% 0.0 mm 41 W/m2
09:17 16.8 °C 11.7 °C 1021.2 hPa NNE 3.5 km/h 12.2 km/h 72% 0.0 mm 40 W/m2
09:22 16.8 °C 11.7 °C 1021.2 hPa North 2.6 km/h 12.2 km/h 72% 0.0 mm 48 W/m2
09:27 16.8 °C 11.7 °C 1021.2 hPa NNW 3.5 km/h 13.4 km/h 72% 0.0 mm 58 W/m2
09:32 16.8 °C 11.7 °C 1020.9 hPa NNW 3.5 km/h 14.8 km/h 72% 0.0 mm 71 W/m2
09:37 16.9 °C 11.8 °C 1020.9 hPa North 5.0 km/h 14.8 km/h 72% 0.0 mm 70 W/m2
09:42 17.1 °C 11.6 °C 1020.9 hPa North 3.5 km/h 15.8 km/h 70% 0.0 mm 59 W/m2
09:47 17.2 °C 11.4 °C 1021.2 hPa NNE 8.7 km/h 15.8 km/h 69% 0.0 mm 51 W/m2
09:52 17.2 °C 11.4 °C 1021.2 hPa North 6.1 km/h 15.8 km/h 69% 0.0 mm 45 W/m2
09:57 17.2 °C 11.7 °C 1021.2 hPa NW 3.5 km/h 13.4 km/h 70% 0.0 mm 59 W/m2
10:02 17.1 °C 11.8 °C 1020.9 hPa North 6.1 km/h 12.2 km/h 71% 0.0 mm 76 W/m2
10:07 17.2 °C 11.7 °C 1020.5 hPa NNE 3.5 km/h 12.2 km/h 70% 0.0 mm 83 W/m2
10:12 17.3 °C 11.8 °C 1020.9 hPa North 1.1 km/h 12.2 km/h 70% 0.0 mm 92 W/m2
10:17 17.4 °C 11.9 °C 1020.9 hPa NNW 9.7 km/h 13.4 km/h 70% 0.0 mm 83 W/m2
10:22 17.4 °C 11.9 °C 1020.9 hPa NNW 2.6 km/h 13.4 km/h 70% 0.0 mm 74 W/m2
10:27 17.5 °C 12.0 °C 1020.9 hPa NNW 3.5 km/h 13.4 km/h 70% 0.0 mm 75 W/m2
10:32 17.4 °C 11.9 °C 1020.5 hPa North 6.1 km/h 12.2 km/h 70% 0.0 mm 69 W/m2
10:37 17.5 °C 12.0 °C 1020.5 hPa North 3.5 km/h 12.2 km/h 70% 0.0 mm 72 W/m2
10:42 17.4 °C 12.1 °C 1020.5 hPa Calm   12.2 km/h 71% 0.0 mm 63 W/m2
10:47 17.3 °C 12.0 °C 1020.5 hPa North 2.6 km/h 7.2 km/h 71% 0.0 mm 52 W/m2
10:52 17.1 °C 12.0 °C 1020.2 hPa NNE 8.7 km/h 13.4 km/h 72% 0.0 mm 52 W/m2
10:57 17.0 °C 12.1 °C 1019.9 hPa NNE 5.0 km/h 13.4 km/h 73% 0.0 mm 45 W/m2
11:02 16.9 °C 12.2 °C 1019.9 hPa Calm   13.4 km/h 74% 0.0 mm 42 W/m2
11:07 16.9 °C 12.2 °C 1019.9 hPa Calm   7.2 km/h 74% 0.0 mm 40 W/m2
11:12 16.9 °C 12.2 °C 1019.5 hPa NE 3.5 km/h 6.1 km/h 74% 0.0 mm 40 W/m2
11:17 16.9 °C 12.1 °C 1019.5 hPa NNW 3.5 km/h 11.1 km/h 73% 0.0 mm 45 W/m2
11:22 16.9 °C 12.1 °C 1019.5 hPa North 3.5 km/h 11.1 km/h 73% 0.0 mm 43 W/m2
11:27 16.9 °C 11.8 °C 1019.5 hPa North 9.7 km/h 14.8 km/h 72% 0.0 mm 38 W/m2
11:32 17.1 °C 11.4 °C 1019.2 hPa North 8.7 km/h 15.8 km/h 69% 0.0 mm 34 W/m2
11:37 17.1 °C 11.4 °C 1018.8 hPa NNE 6.1 km/h 15.8 km/h 69% 0.0 mm 32 W/m2
11:42 17.1 °C 11.2 °C 1018.8 hPa NNE 5.0 km/h 15.8 km/h 68% 0.0 mm 32 W/m2
11:47 17.0 °C 10.8 °C 1018.5 hPa NNE 5.0 km/h 15.8 km/h 67% 0.0 mm 33 W/m2
11:52 17.0 °C 10.6 °C 1018.5 hPa NNE 1.1 km/h 13.4 km/h 66% 0.0 mm 35 W/m2
11:57 17.0 °C 10.6 °C 1018.5 hPa NNE 5.0 km/h 13.4 km/h 66% 0.0 mm 36 W/m2
11:58 17.0 °C 10.6 °C 1018.2 hPa NNE 5.0 km/h 13.4 km/h 66% 0.0 mm 36 W/m2
12:03 16.9 °C 10.7 °C 1018.2 hPa NNE 8.7 km/h 13.4 km/h 67% 0.0 mm 36 W/m2
12:20 17.0 °C 10.6 °C 1018.2 hPa NNE 9.7 km/h 15.8 km/h 66% 0.0 mm 36 W/m2
12:25 17.2 °C 10.6 °C 1017.8 hPa NE 6.1 km/h 14.8 km/h 65% 0.0 mm 37 W/m2
12:30 17.2 °C 10.3 °C 1017.8 hPa Calm   14.8 km/h 64% 0.0 mm 40 W/m2
12:35 17.2 °C 10.3 °C 1018.2 hPa ENE 8.7 km/h 12.2 km/h 64% 0.0 mm 42 W/m2
12:40 17.3 °C 10.2 °C 1017.8 hPa ENE 6.1 km/h 12.2 km/h 63% 0.0 mm 41 W/m2
12:45 17.2 °C 10.3 °C 1017.5 hPa ENE 5.0 km/h 11.1 km/h 64% 0.0 mm 39 W/m2
12:50 17.1 °C 10.2 °C 1017.5 hPa ENE 7.2 km/h 14.8 km/h 64% 0.0 mm 42 W/m2
12:55 17.1 °C 10.2 °C 1017.5 hPa ENE 9.7 km/h 14.8 km/h 64% 0.0 mm 42 W/m2
13:00 17.2 °C 10.3 °C 1017.5 hPa NE 3.5 km/h 13.4 km/h 64% 0.0 mm 41 W/m2
13:05 17.1 °C 10.2 °C 1017.2 hPa NE 7.2 km/h 13.4 km/h 64% 0.0 mm 40 W/m2
13:10 17.1 °C 10.2 °C 1016.8 hPa NE 2.6 km/h 13.4 km/h 64% 0.0 mm 41 W/m2
13:15 17.1 °C 10.5 °C 1016.8 hPa ENE 3.5 km/h 11.1 km/h 65% 0.0 mm 41 W/m2
13:20 17.1 °C 10.2 °C 1016.8 hPa ENE 6.1 km/h 9.7 km/h 64% 0.0 mm 47 W/m2
13:25 17.2 °C 10.6 °C 1016.8 hPa ENE 5.0 km/h 9.7 km/h 65% 0.0 mm 58 W/m2
13:30 17.2 °C 10.6 °C 1016.5 hPa ENE 2.6 km/h 8.7 km/h 65% 0.0 mm 71 W/m2
13:49 18.2 °C 11.5 °C 1016.5 hPa Calm   6.1 km/h 65% 0.0 mm 133 W/m2
13:54 18.3 °C 11.6 °C 1016.5 hPa NE 3.5 km/h 6.1 km/h 65% 0.0 mm 125 W/m2
13:59 18.3 °C 11.4 °C 1016.5 hPa NE 1.1 km/h 7.2 km/h 64% 0.0 mm 169 W/m2
14:04 18.5 °C 11.6 °C 1016.1 hPa NE 7.2 km/h 12.2 km/h 64% 0.0 mm 215 W/m2
14:09 18.6 °C 11.9 °C 1016.1 hPa NE 3.5 km/h 12.2 km/h 65% 0.0 mm 233 W/m2
14:14 19.0 °C 11.8 °C 1016.1 hPa NE 5.0 km/h 13.4 km/h 63% 0.0 mm 197 W/m2
14:19 19.1 °C 11.7 °C 1016.1 hPa NNE 7.2 km/h 13.4 km/h 62% 0.0 mm 148 W/m2
14:24 19.1 °C 11.7 °C 1016.1 hPa NNE 7.2 km/h 15.8 km/h 62% 0.0 mm 148 W/m2
14:29 19.1 °C 11.7 °C 1016.1 hPa NNE 3.5 km/h 17.2 km/h 62% 0.0 mm 123 W/m2
14:34 19.1 °C 11.9 °C 1015.8 hPa North 5.0 km/h 17.2 km/h 63% 0.0 mm 92 W/m2
14:39 19.0 °C 11.8 °C 1015.8 hPa NNE 7.2 km/h 14.8 km/h 63% 0.0 mm 94 W/m2
14:44 18.9 °C 12.2 °C 1015.8 hPa NE 8.7 km/h 14.8 km/h 65% 0.0 mm 96 W/m2
14:49 19.0 °C 12.1 °C 1015.8 hPa NE 1.1 km/h 13.4 km/h 64% 0.0 mm 127 W/m2
14:54 19.1 °C 12.2 °C 1015.5 hPa NNE 3.5 km/h 13.4 km/h 64% 0.0 mm 138 W/m2
14:59 19.1 °C 12.2 °C 1015.5 hPa NNE 7.2 km/h 14.8 km/h 64% 0.0 mm 105 W/m2
15:04 19.1 °C 12.4 °C 1015.5 hPa NNE 2.6 km/h 14.8 km/h 65% 0.0 mm 97 W/m2
15:09 19.0 °C 12.3 °C 1015.5 hPa North 11.1 km/h 17.2 km/h 65% 0.0 mm 82 W/m2
15:14 18.9 °C 12.4 °C 1015.5 hPa North 6.1 km/h 23.3 km/h 66% 0.0 mm 64 W/m2
15:19 18.8 °C 12.3 °C 1015.5 hPa North 8.7 km/h 23.3 km/h 66% 0.0 mm 53 W/m2
15:24 18.7 °C 12.4 °C 1015.1 hPa North 11.1 km/h 25.6 km/h 67% 0.0 mm 52 W/m2
15:29 18.7 °C 12.4 °C 1015.1 hPa NNE 11.1 km/h 25.6 km/h 67% 0.0 mm 53 W/m2
15:34 18.7 °C 12.2 °C 1014.8 hPa NNE 11.1 km/h 25.6 km/h 66% 0.0 mm 54 W/m2
15:39 18.7 °C 12.4 °C 1014.8 hPa NNE 12.2 km/h 25.6 km/h 67% 0.0 mm 55 W/m2
15:44 18.6 °C 12.4 °C 1014.8 hPa NNE 12.2 km/h 28.0 km/h 67% 0.0 mm 57 W/m2
15:49 18.6 °C 12.4 °C 1014.8 hPa NNE 9.7 km/h 28.0 km/h 67% 0.0 mm 48 W/m2
15:54 18.5 °C 12.3 °C 1014.8 hPa North 15.8 km/h 31.7 km/h 67% 0.0 mm 48 W/m2
15:59 18.5 °C 12.3 °C 1014.8 hPa North 14.8 km/h 31.7 km/h 67% 0.0 mm 43 W/m2
16:04 18.5 °C 12.3 °C 1014.8 hPa North 12.2 km/h 27.0 km/h 67% 0.0 mm 38 W/m2
16:09 18.5 °C 12.3 °C 1014.8 hPa North 17.2 km/h 27.0 km/h 67% 0.0 mm 44 W/m2
16:14 18.5 °C 12.3 °C 1014.4 hPa North 18.3 km/h 29.4 km/h 67% 0.0 mm 50 W/m2
16:19 18.4 °C 12.2 °C 1014.4 hPa North 18.3 km/h 29.4 km/h 67% 0.0 mm 51 W/m2
16:24 18.5 °C 12.3 °C 1014.1 hPa North 17.2 km/h 31.7 km/h 67% 0.0 mm 39 W/m2
16:29 18.4 °C 12.2 °C 1014.4 hPa North 17.2 km/h 35.6 km/h 67% 0.0 mm 35 W/m2
16:35 18.3 °C 12.3 °C 1014.1 hPa North 18.3 km/h 35.6 km/h 68% 0.0 mm 29 W/m2
16:40 18.2 °C 12.2 °C 1014.1 hPa North 15.8 km/h 34.3 km/h 68% 0.0 mm 26 W/m2
16:45 18.2 °C 12.2 °C 1014.1 hPa North 11.1 km/h 34.3 km/h 68% 0.0 mm 20 W/m2
16:50 18.1 °C 12.1 °C 1014.1 hPa North 17.2 km/h 34.3 km/h 68% 0.0 mm 18 W/m2
16:55 18.1 °C 12.1 °C 1013.8 hPa North 13.4 km/h 33.1 km/h 68% 0.0 mm 12 W/m2
17:00 18.0 °C 12.0 °C 1013.8 hPa NNW 17.2 km/h 27.0 km/h 68% 0.0 mm 10 W/m2
17:05 17.9 °C 11.9 °C 1013.8 hPa North 14.8 km/h 27.0 km/h 68% 0.0 mm 4 W/m2
17:07 17.9 °C 11.9 °C 1013.4 hPa North 19.5 km/h 31.7 km/h 68% 0.0 mm 2 W/m2
17:12 17.8 °C 11.6 °C 1013.4 hPa North 17.2 km/h 31.7 km/h 67% 0.0 mm 0 W/m2
17:17 17.8 °C 11.6 °C 1013.4 hPa North 14.8 km/h 39.3 km/h 67% 0.0 mm 0 W/m2
17:22 17.8 °C 11.6 °C 1013.1 hPa North 13.4 km/h 39.3 km/h 67% 0.0 mm 0 W/m2
17:27 17.7 °C 11.5 °C 1013.1 hPa North 11.1 km/h 25.6 km/h 67% 0.0 mm 0 W/m2
17:32 17.8 °C 11.4 °C 1013.1 hPa North 13.4 km/h 29.4 km/h 66% 0.0 mm 0 W/m2
17:37 17.8 °C 11.4 °C 1013.1 hPa NNE 21.9 km/h 35.6 km/h 66% 0.0 mm 0 W/m2
17:42 17.9 °C 11.2 °C 1013.1 hPa North 17.2 km/h 35.6 km/h 65% 0.0 mm 0 W/m2
17:47 17.9 °C 11.2 °C 1012.8 hPa North 11.1 km/h 31.7 km/h 65% 0.0 mm 0 W/m2
17:52 17.9 °C 11.2 °C 1012.8 hPa North 18.3 km/h 30.6 km/h 65% 0.0 mm 0 W/m2
17:57 18.0 °C 11.3 °C 1012.8 hPa North 24.5 km/h 34.3 km/h 65% 0.0 mm 0 W/m2
18:02 18.0 °C 11.3 °C 1012.8 hPa North 13.4 km/h 34.3 km/h 65% 0.0 mm 0 W/m2
18:07 18.0 °C 11.3 °C 1012.8 hPa North 19.5 km/h 37.8 km/h 65% 0.0 mm 0 W/m2
18:12 18.0 °C 11.6 °C 1012.8 hPa North 14.8 km/h 37.8 km/h 66% 0.0 mm 0 W/m2
18:17 18.0 °C 11.6 °C 1012.8 hPa North 15.8 km/h 34.3 km/h 66% 0.0 mm 0 W/m2
18:22 18.0 °C 11.8 °C 1012.8 hPa NNE 12.2 km/h 28.0 km/h 67% 0.0 mm 0 W/m2
18:27 18.1 °C 11.9 °C 1012.8 hPa NNE 8.7 km/h 30.6 km/h 67% 0.0 mm 0 W/m2
18:32 18.1 °C 11.9 °C 1012.4 hPa North 13.4 km/h 34.3 km/h 67% 0.0 mm 0 W/m2
18:37 18.2 °C 12.0 °C 1012.4 hPa North 11.1 km/h 34.3 km/h 67% 0.0 mm 0 W/m2
18:42 18.1 °C 11.9 °C 1012.1 hPa North 12.2 km/h 33.1 km/h 67% 0.0 mm 0 W/m2
18:47 18.1 °C 11.9 °C 1012.1 hPa North 13.4 km/h 33.1 km/h 67% 0.0 mm 0 W/m2
18:52 18.2 °C 12.0 °C 1012.1 hPa North 12.2 km/h 27.0 km/h 67% 0.0 mm 0 W/m2
18:57 18.2 °C 12.0 °C 1012.1 hPa NNE 8.7 km/h 24.5 km/h 67% 0.0 mm 0 W/m2
19:02 18.0 °C 11.8 °C 1012.1 hPa North 14.8 km/h 27.0 km/h 67% 0.0 mm 0 W/m2
19:07 18.1 °C 12.1 °C 1012.1 hPa North 18.3 km/h 28.0 km/h 68% 0.0 mm 0 W/m2
19:12 18.2 °C 12.2 °C 1012.1 hPa NNE 13.4 km/h 28.0 km/h 68% 0.0 mm 0 W/m2
19:17 18.2 °C 12.2 °C 1011.7 hPa NNE 13.4 km/h 25.6 km/h 68% 0.0 mm 0 W/m2
19:22 18.1 °C 12.1 °C 1011.7 hPa North 9.7 km/h 25.6 km/h 68% 0.0 mm 0 W/m2
19:27 18.1 °C 12.1 °C 1011.4 hPa NNE 7.2 km/h 24.5 km/h 68% 0.0 mm 0 W/m2
19:32 18.1 °C 12.3 °C 1011.4 hPa NNE 12.2 km/h 23.3 km/h 69% 0.0 mm 0 W/m2
19:37 18.2 °C 12.4 °C 1011.4 hPa NNE 14.8 km/h 24.5 km/h 69% 0.0 mm 0 W/m2
19:42 18.1 °C 12.3 °C 1011.4 hPa NNE 5.0 km/h 31.7 km/h 69% 0.0 mm 0 W/m2
19:47 18.1 °C 12.6 °C 1011.4 hPa NNE 8.7 km/h 31.7 km/h 70% 0.0 mm 0 W/m2
19:52 18.1 °C 12.6 °C 1011.1 hPa NNE 14.8 km/h 21.9 km/h 70% 0.0 mm 0 W/m2
19:57 18.2 °C 12.7 °C 1011.1 hPa NNE 7.2 km/h 27.0 km/h 70% 0.0 mm 0 W/m2
20:02 18.2 °C 12.7 °C 1010.7 hPa NNE 13.4 km/h 27.0 km/h 70% 0.0 mm 0 W/m2
20:07 18.2 °C 12.7 °C 1010.7 hPa NNE 13.4 km/h 30.6 km/h 70% 0.0 mm 0 W/m2
20:12 18.3 °C 12.7 °C 1010.7 hPa NNE 19.5 km/h 30.6 km/h 70% 0.0 mm 0 W/m2
20:17 18.3 °C 12.7 °C 1010.7 hPa NNE 17.2 km/h 24.5 km/h 70% 0.0 mm 0 W/m2
20:22 18.3 °C 12.9 °C 1010.7 hPa NNE 6.1 km/h 24.5 km/h 71% 0.0 mm 0 W/m2
20:27 18.2 °C 12.9 °C 1010.7 hPa North 11.1 km/h 21.9 km/h 71% 0.0 mm 0 W/m2
20:32 18.3 °C 12.9 °C 1010.7 hPa North 5.0 km/h 21.9 km/h 71% 0.0 mm 0 W/m2
20:37 18.3 °C 13.2 °C 1010.4 hPa NNE 6.1 km/h 24.5 km/h 72% 0.0 mm 0 W/m2
20:42 18.3 °C 13.2 °C 1010.0 hPa NNE 9.7 km/h 24.5 km/h 72% 0.0 mm 0 W/m2
20:47 18.3 °C 13.2 °C 1010.0 hPa North 13.4 km/h 21.9 km/h 72% 0.0 mm 0 W/m2
20:52 18.4 °C 13.5 °C 1010.0 hPa NNE 19.5 km/h 24.5 km/h 73% 0.0 mm 0 W/m2
20:57 18.5 °C 13.8 °C 1010.0 hPa NNE 9.7 km/h 25.6 km/h 74% 0.0 mm 0 W/m2
21:02 18.5 °C 13.8 °C 1010.0 hPa NNE 14.8 km/h 27.0 km/h 74% 0.0 mm 0 W/m2
21:07 18.5 °C 14.0 °C 1010.0 hPa NNE 9.7 km/h 27.0 km/h 75% 0.0 mm 0 W/m2
21:12 18.5 °C 14.0 °C 1010.0 hPa North 11.1 km/h 19.5 km/h 75% 0.0 mm 0 W/m2
21:17 18.6 °C 14.1 °C 1010.0 hPa NNE 11.1 km/h 25.6 km/h 75% 0.0 mm 0 W/m2
21:22 18.7 °C 14.2 °C 1010.0 hPa NNE 14.8 km/h 25.6 km/h 75% 0.0 mm 0 W/m2
21:27 18.8 °C 14.3 °C 1010.0 hPa North 17.2 km/h 29.4 km/h 75% 0.0 mm 0 W/m2
21:32 18.9 °C 14.4 °C 1010.0 hPa North 17.2 km/h 29.4 km/h 75% 0.0 mm 0 W/m2
21:37 18.9 °C 14.4 °C 1010.0 hPa North 7.2 km/h 28.0 km/h 75% 0.0 mm 0 W/m2
21:42 19.0 °C 14.3 °C 1010.0 hPa NNE 15.8 km/h 41.7 km/h 74% 0.0 mm 0 W/m2
21:47 19.0 °C 14.3 °C 1010.0 hPa NNE 13.4 km/h 41.7 km/h 74% 0.0 mm 0 W/m2
21:52 19.0 °C 14.3 °C 1010.0 hPa NNE 15.8 km/h 31.7 km/h 74% 0.0 mm 0 W/m2
21:57 19.0 °C 14.3 °C 1009.7 hPa NNE 13.4 km/h 24.5 km/h 74% 0.0 mm 0 W/m2
22:02 19.0 °C 14.5 °C 1009.7 hPa NNE 15.8 km/h 24.5 km/h 75% 0.0 mm 0 W/m2
22:07 19.0 °C 14.5 °C 1009.7 hPa NNE 15.8 km/h 27.0 km/h 75% 0.0 mm 0 W/m2
22:12 19.1 °C 14.6 °C 1009.7 hPa NNE 20.9 km/h 33.1 km/h 75% 0.0 mm 0 W/m2
22:17 19.1 °C 14.6 °C 1009.7 hPa NNE 15.8 km/h 33.1 km/h 75% 0.0 mm 0 W/m2
22:22 19.1 °C 14.6 °C 1009.7 hPa NNE 13.4 km/h 33.1 km/h 75% 0.0 mm 0 W/m2
22:27 19.0 °C 14.5 °C 1009.7 hPa NE 14.8 km/h 24.5 km/h 75% 0.0 mm 0 W/m2
22:32 19.0 °C 14.5 °C 1009.4 hPa NNE 9.7 km/h 24.5 km/h 75% 0.0 mm 0 W/m2
22:37 19.0 °C 14.5 °C 1009.4 hPa North 7.2 km/h 21.9 km/h 75% 0.0 mm 0 W/m2
22:42 18.9 °C 14.6 °C 1009.4 hPa NNW 6.1 km/h 19.5 km/h 76% 0.0 mm 0 W/m2
22:47 18.8 °C 14.7 °C 1009.4 hPa North 7.2 km/h 13.4 km/h 77% 0.0 mm 0 W/m2
22:52 18.8 °C 14.7 °C 1009.4 hPa North 6.1 km/h 20.9 km/h 77% 0.0 mm 0 W/m2
22:57 18.8 °C 14.7 °C 1009.4 hPa NNE 8.7 km/h 20.9 km/h 77% 0.0 mm 0 W/m2
23:02 18.8 °C 14.7 °C 1009.4 hPa NNE 5.0 km/h 17.2 km/h 77% 0.0 mm 0 W/m2
23:07 18.8 °C 14.7 °C 1009.4 hPa NNW 3.5 km/h 24.5 km/h 77% 0.0 mm 0 W/m2
23:12 18.8 °C 14.7 °C 1009.4 hPa NNW 9.7 km/h 24.5 km/h 77% 0.0 mm 0 W/m2
23:17 18.8 °C 14.7 °C 1009.4 hPa North 6.1 km/h 18.3 km/h 77% 0.0 mm 0 W/m2
23:22 18.7 °C 14.8 °C 1009.7 hPa NNW 6.1 km/h 12.2 km/h 78% 0.0 mm 0 W/m2
23:27 18.5 °C 14.6 °C 1010.0 hPa West 17.2 km/h 24.5 km/h 78% 0.0 mm 0 W/m2
23:32 17.4 °C 13.7 °C 1010.0 hPa WSW 14.8 km/h 30.6 km/h 79% 0.0 mm 0 W/m2
23:37 16.5 °C 13.8 °C 1010.4 hPa WSW 24.5 km/h 30.6 km/h 84% 0.0 mm 0 W/m2
23:42 15.6 °C 13.6 °C 1010.4 hPa SW 24.5 km/h 40.4 km/h 88% 0.0 mm 0 W/m2
Northern Hawkes Bay. New Zealand Historic Data
Compliments of Weather Underground - 2 mb